Time;durP1;ratioP1;P1;durP2;ratioP2;P2;SDS_P1;SDS_P2;PMS_P1;PMS_P2;Temp;Humidity;BMP_temperature;BMP_pressure;BME280_temperature;BME280_humidity;BME280_pressure;Samples;Min_cycle;Max_cycle;Signal;HPM_P1;HPM_P2
2022/12/05 00:01:20;;;;;;;417.80;163.57;;;;;;;;;;4985335;28;20221;-52
2022/12/05 00:03:49;;;;;;;409.90;163.93;;;;;;;;;;4984911;28;20351;-52
2022/12/05 00:06:18;;;;;;;398.47;162.43;;;;;;;;;;4985219;28;20383;-52
2022/12/05 00:08:47;;;;;;;497.43;191.10;;;;;;;;;;4984762;28;20221;-52
2022/12/05 00:11:14;;;;;;;505.97;198.07;;;;;;;;;;4984899;28;20300;-52
2022/12/05 00:13:41;;;;;;;515.37;199.73;;;;;;;;;;4985135;28;20210;-52
2022/12/05 00:16:08;;;;;;;467.87;180.40;;;;;;;;;;4989958;28;20466;-52
2022/12/05 00:18:34;;;;;;;392.03;160.07;;;;;;;;;;4986974;28;20225;-52
2022/12/05 00:21:00;;;;;;;472.20;177.07;;;;;;;;;;4984838;28;20214;-52
2022/12/05 00:23:26;;;;;;;478.57;185.33;;;;;;;;;;4984568;28;20217;-52
2022/12/05 00:25:52;;;;;;;380.90;153.17;;;;;;;;;;4985972;28;20189;-52
2022/12/05 00:28:18;;;;;;;507.70;194.80;;;;;;;;;;4984028;28;20209;-52
2022/12/05 00:30:44;;;;;;;432.80;170.87;;;;;;;;;;4986488;28;20299;-52
2022/12/05 00:33:10;;;;;;;502.60;186.07;;;;;;;;;;4982215;28;20230;-52
2022/12/05 00:35:36;;;;;;;422.30;167.43;;;;;;;;;;4984306;28;20206;-52
2022/12/05 00:38:08;;;;;;;518.90;213.50;;;;;;;;;;4985504;28;20182;-52
2022/12/05 00:40:35;;;;;;;393.20;159.57;;;;;;;;;;4982567;28;20182;-52
2022/12/05 00:43:01;;;;;;;489.30;188.47;;;;;;;;;;4984390;28;20263;-52
2022/12/05 00:45:27;;;;;;;392.30;155.60;;;;;;;;;;4985721;28;20575;-52
2022/12/05 00:47:53;;;;;;;442.43;173.77;;;;;;;;;;4982682;28;20210;-52
2022/12/05 00:50:19;;;;;;;486.03;192.90;;;;;;;;;;4983610;28;20320;-51
2022/12/05 00:52:48;;;;;;;496.03;194.13;;;;;;;;;;4986456;28;20213;-52
2022/12/05 00:55:14;;;;;;;511.03;197.30;;;;;;;;;;4984838;28;20268;-52
2022/12/05 00:57:40;;;;;;;410.27;160.27;;;;;;;;;;4985365;28;20221;-52
2022/12/05 01:00:09;;;;;;;397.30;163.37;;;;;;;;;;4983303;28;20892;-52
2022/12/05 01:02:35;;;;;;;391.37;162.70;;;;;;;;;;4983426;28;20292;-52
2022/12/05 01:05:01;;;;;;;466.73;189.20;;;;;;;;;;4984578;28;20566;-52
2022/12/05 01:07:27;;;;;;;499.83;202.10;;;;;;;;;;4982832;28;20201;-52
2022/12/05 01:09:53;;;;;;;460.50;174.70;;;;;;;;;;4984223;28;20220;-52
2022/12/05 01:12:19;;;;;;;508.47;187.37;;;;;;;;;;4988753;28;20610;-52
2022/12/05 01:14:45;;;;;;;394.17;159.53;;;;;;;;;;4989188;28;20724;-52
2022/12/05 01:17:11;;;;;;;488.60;198.10;;;;;;;;;;4982017;28;20182;-52
2022/12/05 01:19:37;;;;;;;449.97;185.93;;;;;;;;;;4981314;28;20265;-52
2022/12/05 01:22:03;;;;;;;369.50;153.23;;;;;;;;;;4981522;28;20229;-52
2022/12/05 01:24:29;;;;;;;491.10;191.73;;;;;;;;;;4981212;28;20268;-52
2022/12/05 01:26:55;;;;;;;412.77;164.87;;;;;;;;;;4980797;28;20698;-51
2022/12/05 01:29:23;;;;;;;508.60;199.53;;;;;;;;;;4982365;28;20241;-52
2022/12/05 01:31:49;;;;;;;470.53;183.20;;;;;;;;;;4983055;28;20305;-52
2022/12/05 01:34:16;;;;;;;476.20;185.50;;;;;;;;;;4983551;28;20258;-52
2022/12/05 01:36:42;;;;;;;519.10;199.43;;;;;;;;;;4982653;28;20298;-52
2022/12/05 01:39:09;;;;;;;507.90;194.07;;;;;;;;;;4981996;28;20626;-52
2022/12/05 01:41:37;;;;;;;392.43;155.27;;;;;;;;;;4984155;28;20217;-52
2022/12/05 01:44:12;;;;;;;412.00;163.93;;;;;;;;;;4985822;28;20888;-52
2022/12/05 01:46:44;;;;;;;444.90;175.03;;;;;;;;;;4985208;28;20345;-52
2022/12/05 01:49:14;;;;;;;449.20;177.50;;;;;;;;;;4984968;28;20233;-52
2022/12/05 01:51:44;;;;;;;416.33;167.13;;;;;;;;;;4979947;28;20544;-52
2022/12/05 01:54:11;;;;;;;391.17;161.97;;;;;;;;;;4983958;28;20268;-52
2022/12/05 01:56:39;;;;;;;407.20;169.67;;;;;;;;;;4984132;28;20245;-52
2022/12/05 01:59:07;;;;;;;398.17;156.50;;;;;;;;;;4984489;28;20186;-52
2022/12/05 02:01:33;;;;;;;519.67;194.73;;;;;;;;;;4983737;28;20355;-52
2022/12/05 02:03:59;;;;;;;418.13;166.20;;;;;;;;;;4982443;28;21106;-52
2022/12/05 02:06:26;;;;;;;508.10;202.77;;;;;;;;;;4985219;28;20241;-52
2022/12/05 02:08:53;;;;;;;421.57;163.53;;;;;;;;;;4980062;28;20236;-52
2022/12/05 02:11:20;;;;;;;499.43;190.97;;;;;;;;;;4982349;28;20273;-52
2022/12/05 02:14:01;;;;;;;483.67;196.90;;;;;;;;;;4986230;28;20745;-52
2022/12/05 02:16:36;;;;;;;503.57;201.87;;;;;;;;;;4983766;28;20619;-52
2022/12/05 02:19:17;;;;;;;390.67;158.73;;;;;;;;;;4986937;28;20224;-52
2022/12/05 02:21:52;;;;;;;448.10;176.87;;;;;;;;;;4993864;28;20232;-52
2022/12/05 02:24:30;;;;;;;443.43;171.47;;;;;;;;;;4984258;28;20216;-52
2022/12/05 02:27:05;;;;;;;461.43;179.70;;;;;;;;;;4983778;28;20209;-52
2022/12/05 02:29:47;;;;;;;417.63;167.40;;;;;;;;;;4987621;28;20819;-52
2022/12/05 02:32:20;;;;;;;494.20;183.27;;;;;;;;;;4985827;28;20272;-52
2022/12/05 02:34:49;;;;;;;469.77;185.87;;;;;;;;;;4985529;28;21090;-52
2022/12/05 02:37:22;;;;;;;407.67;169.30;;;;;;;;;;4987682;28;20209;-52
2022/12/05 02:40:11;;;;;;;552.90;212.83;;;;;;;;;;4989115;28;20216;-53
2022/12/05 02:42:57;;;;;;;487.87;189.90;;;;;;;;;;4975535;28;20361;-52
2022/12/05 02:45:25;;;;;;;481.60;193.20;;;;;;;;;;4979550;28;20485;-53
2022/12/05 02:47:52;;;;;;;497.53;195.53;;;;;;;;;;4977681;28;20244;-52
2022/12/05 02:50:20;;;;;;;430.30;172.30;;;;;;;;;;4988118;28;20732;-53
2022/12/05 02:52:53;;;;;;;357.57;146.63;;;;;;;;;;4987890;28;20213;-55
2022/12/05 02:55:20;;;;;;;396.00;159.80;;;;;;;;;;4987654;28;20221;-52
2022/12/05 02:57:52;;;;;;;485.90;191.30;;;;;;;;;;4986281;28;20225;-53
2022/12/05 03:00:18;;;;;;;425.73;170.87;;;;;;;;;;4983416;28;20228;-52
2022/12/05 03:02:44;;;;;;;527.40;201.63;;;;;;;;;;4985647;28;20653;-52
2022/12/05 03:05:29;;;;;;;414.67;162.90;;;;;;;;;;4984749;28;20195;-53
2022/12/05 03:07:57;;;;;;;522.77;207.53;;;;;;;;;;4983426;28;21074;-53
2022/12/05 03:10:28;;;;;;;523.07;197.83;;;;;;;;;;4983948;28;20225;-52
2022/12/05 03:12:56;;;;;;;516.27;200.00;;;;;;;;;;4982247;28;20213;-52
2022/12/05 03:15:33;;;;;;;393.57;159.77;;;;;;;;;;4984128;28;20209;-52
2022/12/05 03:18:05;;;;;;;477.47;187.87;;;;;;;;;;4987244;28;20213;-52
2022/12/05 03:20:34;;;;;;;431.07;166.00;;;;;;;;;;4983929;28;20221;-52
2022/12/05 03:23:03;;;;;;;521.30;205.67;;;;;;;;;;4982275;28;20248;-52
2022/12/05 03:25:40;;;;;;;469.90;187.23;;;;;;;;;;4987925;28;20188;-53
2022/12/05 03:28:10;;;;;;;405.27;157.23;;;;;;;;;;4982452;28;20728;-53
2022/12/05 03:30:38;;;;;;;381.20;156.93;;;;;;;;;;4985111;28;20308;-52
2022/12/05 03:33:10;;;;;;;386.70;156.57;;;;;;;;;;4984378;28;20496;-52
2022/12/05 03:35:40;;;;;;;472.40;183.60;;;;;;;;;;4986059;28;20651;-52
2022/12/05 03:38:05;;;;;;;411.53;165.43;;;;;;;;;;4983803;28;20193;-52
2022/12/05 03:40:34;;;;;;;497.40;191.30;;;;;;;;;;4983415;28;20182;-53
2022/12/05 03:43:01;;;;;;;372.23;153.53;;;;;;;;;;4982218;28;20217;-53
2022/12/05 03:45:31;;;;;;;499.57;198.73;;;;;;;;;;4986179;28;20713;-53
2022/12/05 03:48:07;;;;;;;518.80;203.57;;;;;;;;;;4984105;28;20758;-52
2022/12/05 03:50:34;;;;;;;470.83;187.03;;;;;;;;;;4984831;28;20347;-52
2022/12/05 03:53:06;;;;;;;388.03;157.40;;;;;;;;;;4985180;28;20205;-52
2022/12/05 03:55:34;;;;;;;519.20;201.40;;;;;;;;;;4984354;28;20177;-53
2022/12/05 03:58:12;;;;;;;465.63;182.53;;;;;;;;;;4988943;28;20233;-53
2022/12/05 04:00:40;;;;;;;499.93;194.97;;;;;;;;;;4984166;28;20222;-52
2022/12/05 04:03:09;;;;;;;432.83;178.47;;;;;;;;;;4987071;28;20328;-52
2022/12/05 04:05:39;;;;;;;392.93;151.80;;;;;;;;;;4983260;28;20217;-53
2022/12/05 04:08:07;;;;;;;415.17;163.60;;;;;;;;;;4986437;28;20681;-52
2022/12/05 04:10:47;;;;;;;411.30;159.30;;;;;;;;;;4986469;28;20197;-52
2022/12/05 04:13:17;;;;;;;521.47;196.80;;;;;;;;;;4989005;28;20221;-53
2022/12/05 04:18:32;;;;;;;429.67;167.53;;;;;;;;;;4980985;28;20290;-52
2022/12/05 04:25:31;;;;;;;388.47;158.93;;;;;;;;;;4987496;28;20239;-52
2022/12/05 04:26:34;;;;;;;440.23;174.43;;;;;;;;;;4984175;28;20213;-52
2022/12/05 04:29:07;;;;;;;399.33;163.93;;;;;;;;;;4989004;28;20205;-53
2022/12/05 04:31:35;;;;;;;499.00;188.60;;;;;;;;;;4985284;28;20196;-52
2022/12/05 04:34:04;;;;;;;432.23;171.87;;;;;;;;;;4982059;28;21025;-53
2022/12/05 04:36:42;;;;;;;481.97;193.80;;;;;;;;;;4987575;28;20209;-53
2022/12/05 04:39:10;;;;;;;399.57;162.57;;;;;;;;;;4979030;28;20318;-52
2022/12/05 04:41:57;;;;;;;500.53;197.83;;;;;;;;;;4989616;28;20276;-53
2022/12/05 04:44:26;;;;;;;432.83;167.50;;;;;;;;;;4980238;28;20982;-53
2022/12/05 04:46:54;;;;;;;474.37;186.57;;;;;;;;;;4983284;28;20312;-53
2022/12/05 04:49:24;;;;;;;387.63;156.93;;;;;;;;;;4956746;28;20230;-53
2022/12/05 04:51:52;;;;;;;474.50;192.07;;;;;;;;;;4981545;28;20566;-52
2022/12/05 04:54:24;;;;;;;450.63;176.60;;;;;;;;;;4985245;28;20207;-52
2022/12/05 04:56:52;;;;;;;492.30;199.13;;;;;;;;;;4981460;28;20300;-53
2022/12/05 04:59:21;;;;;;;401.80;162.23;;;;;;;;;;4990084;28;20223;-53
2022/12/05 05:07:26;;;;;;;462.73;185.80;;;;;;;;;;5083952;27;20576;-54
2022/12/05 05:09:52;;;;;;;523.00;206.60;;;;;;;;;;5055037;28;20356;-53
2022/12/05 05:12:18;;;;;;;545.80;216.37;;;;;;;;;;5041011;28;20230;-54
2022/12/05 05:14:44;;;;;;;441.47;173.97;;;;;;;;;;5038056;28;20916;-53
2022/12/05 05:17:10;;;;;;;533.87;211.33;;;;;;;;;;5040564;28;20254;-54
2022/12/05 05:19:36;;;;;;;527.47;214.17;;;;;;;;;;5047023;28;20187;-53
2022/12/05 05:22:03;;;;;;;448.43;174.93;;;;;;;;;;5039660;28;20230;-53
2022/12/05 05:24:29;;;;;;;507.10;199.90;;;;;;;;;;5038010;28;20207;-53
2022/12/05 05:26:55;;;;;;;438.87;173.97;;;;;;;;;;5043589;28;20206;-56
2022/12/05 05:29:21;;;;;;;507.93;196.70;;;;;;;;;;5041294;28;20225;-54
2022/12/05 05:31:47;;;;;;;465.70;184.30;;;;;;;;;;5040949;28;20607;-53
2022/12/05 05:34:14;;;;;;;530.30;196.40;;;;;;;;;;5038687;28;20303;-54
2022/12/05 05:36:41;;;;;;;495.60;186.63;;;;;;;;;;5039909;28;20219;-53
2022/12/05 05:39:11;;;;;;;384.37;156.40;;;;;;;;;;5045847;28;20289;-54
2022/12/05 05:41:37;;;;;;;412.30;165.57;;;;;;;;;;5036994;28;20215;-54
2022/12/05 05:44:04;;;;;;;439.23;179.57;;;;;;;;;;5039245;28;20200;-54
2022/12/05 05:46:32;;;;;;;505.20;200.33;;;;;;;;;;5042648;28;20541;-53
2022/12/05 05:48:59;;;;;;;515.00;201.20;;;;;;;;;;5039111;28;20306;-54
2022/12/05 05:51:26;;;;;;;524.37;198.10;;;;;;;;;;5044154;28;20328;-53
2022/12/05 05:53:52;;;;;;;448.37;177.67;;;;;;;;;;5036791;28;20249;-53
2022/12/05 05:56:20;;;;;;;507.40;202.43;;;;;;;;;;5042919;28;20243;-53
2022/12/05 05:58:46;;;;;;;556.03;216.47;;;;;;;;;;5040974;28;20184;-53
2022/12/05 06:01:14;;;;;;;545.33;209.73;;;;;;;;;;5043184;28;20478;-54
2022/12/05 06:03:40;;;;;;;423.60;169.73;;;;;;;;;;5042908;28;20223;-54
2022/12/05 06:06:08;;;;;;;538.70;211.87;;;;;;;;;;5031420;28;21325;-54
2022/12/05 06:08:35;;;;;;;553.60;220.10;;;;;;;;;;5042122;28;20701;-54
2022/12/05 06:11:05;;;;;;;444.43;176.77;;;;;;;;;;5036495;28;20616;-55
2022/12/05 06:13:34;;;;;;;627.93;255.70;;;;;;;;;;5022427;28;20195;-54
2022/12/05 06:16:00;;;;;;;565.80;226.57;;;;;;;;;;5029593;28;20229;-54
2022/12/05 06:18:26;;;;;;;504.00;198.50;;;;;;;;;;5018936;28;20220;-54
2022/12/05 06:20:56;;;;;;;509.60;208.40;;;;;;;;;;5019834;28;20228;-54
2022/12/05 06:23:22;;;;;;;530.67;220.43;;;;;;;;;;5012675;28;20244;-54
2022/12/05 06:25:49;;;;;;;590.03;228.77;;;;;;;;;;5013538;28;20192;-54
2022/12/05 06:28:16;;;;;;;493.83;197.13;;;;;;;;;;5013307;28;20216;-55
2022/12/05 06:30:42;;;;;;;558.83;216.93;;;;;;;;;;5020987;28;20343;-53
2022/12/05 06:33:08;;;;;;;451.93;185.97;;;;;;;;;;5033374;28;20652;-53
2022/12/05 06:35:34;;;;;;;446.70;181.70;;;;;;;;;;5041258;28;20215;-52
2022/12/05 06:38:00;;;;;;;446.83;177.67;;;;;;;;;;5040613;28;20186;-52
2022/12/05 06:40:26;;;;;;;479.00;194.77;;;;;;;;;;5041841;28;20180;-52
2022/12/05 06:42:52;;;;;;;509.07;197.33;;;;;;;;;;5038896;28;20216;-52
2022/12/05 06:45:18;;;;;;;469.77;179.50;;;;;;;;;;5030808;28;20360;-52
2022/12/05 06:47:45;;;;;;;495.07;198.90;;;;;;;;;;5033454;28;20208;-52
2022/12/05 06:50:11;;;;;;;444.10;174.17;;;;;;;;;;5037269;28;20258;-52
2022/12/05 06:52:37;;;;;;;522.00;196.40;;;;;;;;;;5038146;28;20203;-52
2022/12/05 06:55:04;;;;;;;544.97;217.27;;;;;;;;;;5025221;28;20235;-52
2022/12/05 06:57:31;;;;;;;572.33;219.03;;;;;;;;;;5031187;28;20347;-51
2022/12/05 07:01:37;;;;;;;443.80;180.73;;;;;;;;;;5035828;28;20350;-51
2022/12/05 07:02:46;;;;;;;485.40;184.37;;;;;;;;;;5025107;28;20317;-51
2022/12/05 07:05:14;;;;;;;520.53;206.00;;;;;;;;;;5040856;28;20187;-52
2022/12/05 07:07:40;;;;;;;478.13;187.90;;;;;;;;;;5043667;28;20673;-52
2022/12/05 07:10:07;;;;;;;540.57;219.83;;;;;;;;;;5033387;28;20211;-52
2022/12/05 07:12:33;;;;;;;468.03;186.17;;;;;;;;;;5032096;28;20255;-52
2022/12/05 07:14:59;;;;;;;472.43;186.03;;;;;;;;;;5033727;28;20201;-53
2022/12/05 07:17:25;;;;;;;450.63;179.47;;;;;;;;;;5038205;28;20211;-53
2022/12/05 07:19:51;;;;;;;546.67;222.40;;;;;;;;;;5031394;28;20221;-53
2022/12/05 07:22:18;;;;;;;556.27;213.50;;;;;;;;;;5035496;28;21113;-52
2022/12/05 07:24:45;;;;;;;470.53;185.77;;;;;;;;;;5030845;28;20688;-53
2022/12/05 07:27:11;;;;;;;600.43;232.93;;;;;;;;;;5035545;28;20247;-52
2022/12/05 07:29:37;;;;;;;558.57;225.07;;;;;;;;;;4999379;28;20302;-53
2022/12/05 07:32:04;;;;;;;630.07;259.53;;;;;;;;;;5010912;28;20204;-51
2022/12/05 07:34:30;;;;;;;520.83;207.93;;;;;;;;;;5013922;28;20225;-51
2022/12/05 07:36:59;;;;;;;526.40;221.10;;;;;;;;;;5022848;28;20290;-51
2022/12/05 07:39:26;;;;;;;557.00;226.57;;;;;;;;;;5029516;28;20247;-52
2022/12/05 07:41:55;;;;;;;446.27;181.23;;;;;;;;;;5033359;28;20212;-52
2022/12/05 07:44:21;;;;;;;538.93;213.17;;;;;;;;;;5033241;28;20239;-53
2022/12/05 07:46:47;;;;;;;495.57;195.47;;;;;;;;;;5028483;28;20271;-52
2022/12/05 07:49:14;;;;;;;597.13;230.70;;;;;;;;;;5033525;28;20243;-53
2022/12/05 07:51:40;;;;;;;600.17;235.33;;;;;;;;;;5032700;28;20625;-52
2022/12/05 07:54:06;;;;;;;599.23;237.47;;;;;;;;;;5032868;28;20244;-52
2022/12/05 07:56:33;;;;;;;516.63;202.83;;;;;;;;;;5026794;28;20354;-52
2022/12/05 07:58:59;;;;;;;504.37;197.43;;;;;;;;;;5024691;28;20210;-52
2022/12/05 08:01:26;;;;;;;587.13;228.97;;;;;;;;;;5026824;28;20184;-52
2022/12/05 08:03:54;;;;;;;495.73;194.47;;;;;;;;;;5026367;28;20572;-53
2022/12/05 08:06:21;;;;;;;607.47;229.07;;;;;;;;;;5026198;28;20211;-53
2022/12/05 08:08:48;;;;;;;508.90;197.50;;;;;;;;;;5026120;28;20562;-52
2022/12/05 08:11:16;;;;;;;480.23;188.93;;;;;;;;;;5024868;28;20572;-52
2022/12/05 08:13:43;;;;;;;490.53;189.63;;;;;;;;;;5026809;28;20331;-52
2022/12/05 08:16:13;;;;;;;559.57;220.47;;;;;;;;;;5026625;28;20748;-52
2022/12/05 08:18:39;;;;;;;572.73;228.17;;;;;;;;;;5025189;28;20277;-52
2022/12/05 08:21:06;;;;;;;522.97;205.47;;;;;;;;;;5024347;28;20216;-52
2022/12/05 08:23:33;;;;;;;602.87;235.13;;;;;;;;;;5024370;28;20242;-52
2022/12/05 08:26:03;;;;;;;470.40;184.30;;;;;;;;;;5024688;28;20188;-52
2022/12/05 08:28:29;;;;;;;580.57;225.23;;;;;;;;;;5024664;28;20184;-52
2022/12/05 08:30:56;;;;;;;540.57;215.37;;;;;;;;;;5026191;28;20224;-53
2022/12/05 08:33:25;;;;;;;481.37;190.40;;;;;;;;;;5026085;28;20696;-52
2022/12/05 08:35:51;;;;;;;610.73;233.43;;;;;;;;;;5025803;28;20708;-53
2022/12/05 08:38:17;;;;;;;501.73;202.63;;;;;;;;;;5025731;28;20271;-52
2022/12/05 08:40:43;;;;;;;568.80;221.60;;;;;;;;;;5024417;28;20517;-52
2022/12/05 08:43:09;;;;;;;524.50;205.37;;;;;;;;;;5025604;28;20211;-53
2022/12/05 08:45:35;;;;;;;610.37;229.50;;;;;;;;;;5025979;28;20208;-52
2022/12/05 08:48:01;;;;;;;592.87;226.00;;;;;;;;;;5033060;28;20207;-53
2022/12/05 08:50:27;;;;;;;570.47;226.83;;;;;;;;;;5025657;28;20224;-52
2022/12/05 08:52:53;;;;;;;491.77;187.73;;;;;;;;;;5031263;28;20203;-52
2022/12/05 08:55:19;;;;;;;495.17;192.47;;;;;;;;;;5035667;28;20174;-52
2022/12/05 08:57:45;;;;;;;538.00;221.70;;;;;;;;;;5033446;28;20289;-53
2022/12/05 09:00:12;;;;;;;527.63;216.67;;;;;;;;;;5027904;28;20296;-52
2022/12/05 09:02:38;;;;;;;542.77;210.57;;;;;;;;;;5030523;28;20204;-52
2022/12/05 09:05:04;;;;;;;472.77;188.73;;;;;;;;;;5032801;28;20548;-52
2022/12/05 09:07:30;;;;;;;476.10;188.03;;;;;;;;;;5027407;28;20186;-52
2022/12/05 09:09:56;;;;;;;495.90;189.67;;;;;;;;;;5025263;28;20219;-52
2022/12/05 09:12:23;;;;;;;583.03;223.27;;;;;;;;;;5032430;28;20692;-52
2022/12/05 09:14:49;;;;;;;609.10;239.83;;;;;;;;;;5031649;28;20251;-53
2022/12/05 09:17:15;;;;;;;495.20;190.10;;;;;;;;;;5027634;28;20231;-52
2022/12/05 09:19:42;;;;;;;583.93;217.40;;;;;;;;;;5033493;28;20179;-52
2022/12/05 09:22:08;;;;;;;480.60;191.03;;;;;;;;;;5036880;28;20216;-52
2022/12/05 09:24:34;;;;;;;509.47;197.57;;;;;;;;;;5030954;28;20587;-53
2022/12/05 09:27:00;;;;;;;476.73;190.50;;;;;;;;;;5031504;28;20319;-52
2022/12/05 09:29:28;;;;;;;460.97;179.27;;;;;;;;;;5039965;28;20306;-52
2022/12/05 09:32:00;;;;;;;587.67;230.07;;;;;;;;;;5039750;28;20226;-53
2022/12/05 09:34:26;;;;;;;508.67;195.73;;;;;;;;;;5025537;28;20176;-52
2022/12/05 09:36:52;;;;;;;590.63;230.37;;;;;;;;;;5024705;28;20425;-53
2022/12/05 09:39:19;;;;;;;514.00;205.00;;;;;;;;;;5023673;28;20223;-53
2022/12/05 09:42:03;;;;;;;596.67;230.90;;;;;;;;;;5022511;28;20219;-52
2022/12/05 09:44:48;;;;;;;514.43;205.03;;;;;;;;;;5019376;28;20222;-52
2022/12/05 09:47:20;;;;;;;451.53;184.77;;;;;;;;;;5024061;28;20207;-52
2022/12/05 09:49:57;;;;;;;574.83;228.07;;;;;;;;;;5020174;28;20188;-52
2022/12/05 09:52:32;;;;;;;596.83;228.13;;;;;;;;;;5019730;28;20316;-52
2022/12/05 09:55:12;;;;;;;560.13;223.33;;;;;;;;;;5028327;28;20216;-51
2022/12/05 09:57:41;;;;;;;471.97;189.47;;;;;;;;;;5021373;28;20224;-52
2022/12/05 10:00:09;;;;;;;594.33;236.37;;;;;;;;;;5011307;28;20220;-52
2022/12/05 10:03:01;;;;;;;579.93;232.80;;;;;;;;;;5015986;28;20232;-52
2022/12/05 10:05:43;;;;;;;580.00;224.20;;;;;;;;;;5045243;28;20581;-52
2022/12/05 10:08:12;;;;;;;500.17;197.17;;;;;;;;;;5036132;28;20537;-52
2022/12/05 10:10:38;;;;;;;573.03;223.53;;;;;;;;;;5028599;28;20267;-52
2022/12/05 10:13:22;;;;;;;517.70;201.83;;;;;;;;;;5028044;28;20219;-53
2022/12/05 10:15:57;;;;;;;579.47;225.40;;;;;;;;;;5035091;28;20227;-52
2022/12/05 10:18:33;;;;;;;470.73;189.17;;;;;;;;;;5041725;28;20230;-52
2022/12/05 10:21:05;;;;;;;595.30;242.50;;;;;;;;;;5040620;28;20219;-52
2022/12/05 10:23:38;;;;;;;602.60;240.23;;;;;;;;;;5034707;28;20219;-52
2022/12/05 10:26:05;;;;;;;469.40;195.97;;;;;;;;;;5036309;28;20530;-52
2022/12/05 10:28:34;;;;;;;563.43;225.97;;;;;;;;;;5034644;28;20176;-52
2022/12/05 10:31:02;;;;;;;583.03;220.57;;;;;;;;;;5028809;28;20211;-55
2022/12/05 10:33:32;;;;;;;553.07;215.77;;;;;;;;;;5034182;28;20588;-54
2022/12/05 10:36:02;;;;;;;560.77;220.13;;;;;;;;;;5035725;28;20304;-54
2022/12/05 10:38:32;;;;;;;581.53;227.20;;;;;;;;;;5038742;28;20200;-54
2022/12/05 10:41:00;;;;;;;492.70;198.43;;;;;;;;;;5034507;28;20251;-52
2022/12/05 10:43:28;;;;;;;500.33;204.17;;;;;;;;;;5034401;28;20569;-52
2022/12/05 10:45:54;;;;;;;556.17;210.83;;;;;;;;;;5037272;28;20208;-51
2022/12/05 10:48:21;;;;;;;565.67;221.67;;;;;;;;;;5035350;28;20215;-52
2022/12/05 10:50:49;;;;;;;486.97;197.83;;;;;;;;;;5035327;28;20260;-55
2022/12/05 10:53:18;;;;;;;605.27;238.77;;;;;;;;;;5034071;28;20310;-55
2022/12/05 10:55:47;;;;;;;476.67;189.47;;;;;;;;;;5038236;28;20202;-53
2022/12/05 10:58:21;;;;;;;494.37;188.23;;;;;;;;;;5025615;28;20241;-52
2022/12/05 11:00:50;;;;;;;492.63;196.90;;;;;;;;;;5033933;28;20208;-52
2022/12/05 11:03:33;;;;;;;494.73;196.07;;;;;;;;;;5032892;28;20324;-53
2022/12/05 11:06:14;;;;;;;587.23;229.10;;;;;;;;;;5037945;28;20282;-54
2022/12/05 11:08:40;;;;;;;585.20;227.33;;;;;;;;;;5035847;28;20212;-57
2022/12/05 11:11:08;;;;;;;524.00;205.67;;;;;;;;;;5037556;28;20258;-52
2022/12/05 11:13:34;;;;;;;613.47;239.07;;;;;;;;;;5033686;28;20223;-53
2022/12/05 11:16:01;;;;;;;594.67;233.53;;;;;;;;;;5036045;28;20216;-53
2022/12/05 11:18:29;;;;;;;487.03;196.97;;;;;;;;;;5030049;28;20349;-55
2022/12/05 11:20:56;;;;;;;512.93;204.87;;;;;;;;;;5030249;28;20290;-53
2022/12/05 11:23:24;;;;;;;579.00;229.13;;;;;;;;;;5030475;28;20212;-52
2022/12/05 11:25:50;;;;;;;613.60;248.20;;;;;;;;;;5034000;28;20640;-53
2022/12/05 11:28:16;;;;;;;496.97;196.80;;;;;;;;;;5044095;28;20211;-54
2022/12/05 11:30:57;;;;;;;604.90;240.73;;;;;;;;;;5042131;28;20215;-53
2022/12/05 11:33:24;;;;;;;474.70;195.67;;;;;;;;;;5030084;28;20619;-55
2022/12/05 11:35:52;;;;;;;594.53;228.77;;;;;;;;;;5038489;28;20223;-52
2022/12/05 11:38:21;;;;;;;476.97;193.63;;;;;;;;;;5026626;28;20211;-52
2022/12/05 11:40:51;;;;;;;486.80;190.80;;;;;;;;;;5027588;28;20205;-52
2022/12/05 11:43:23;;;;;;;614.07;248.37;;;;;;;;;;5029396;28;20240;-52
2022/12/05 11:45:49;;;;;;;575.33;214.80;;;;;;;;;;5030627;28;20222;-53
2022/12/05 11:48:25;;;;;;;583.90;226.87;;;;;;;;;;5032461;28;20272;-52
2022/12/05 11:54:15;;;;;;;503.43;198.47;;;;;;;;;;5063957;27;20558;-53
2022/12/05 11:56:45;;;;;;;468.17;186.67;;;;;;;;;;5040131;28;20250;-54
2022/12/05 11:59:17;;;;;;;460.67;189.50;;;;;;;;;;5043185;28;20179;-53
2022/12/05 12:01:58;;;;;;;535.00;211.87;;;;;;;;;;5043161;28;20171;-53
2022/12/05 12:04:43;;;;;;;484.07;180.07;;;;;;;;;;5002813;28;20208;-55
2022/12/05 12:07:28;;;;;;;548.23;205.80;;;;;;;;;;5019639;28;20346;-53
2022/12/05 12:09:57;;;;;;;600.43;222.20;;;;;;;;;;5021714;28;20605;-53
2022/12/05 12:12:28;;;;;;;508.97;194.77;;;;;;;;;;5022351;28;20467;-53
2022/12/05 12:15:13;;;;;;;478.33;186.93;;;;;;;;;;5020218;28;20278;-53
2022/12/05 12:17:58;;;;;;;508.47;189.73;;;;;;;;;;5011504;28;20219;-52
2022/12/05 12:20:24;;;;;;;552.97;215.63;;;;;;;;;;5021635;28;20250;-53
2022/12/05 12:23:09;;;;;;;491.33;185.93;;;;;;;;;;5022288;28;20205;-52
2022/12/05 12:25:41;;;;;;;567.53;209.67;;;;;;;;;;5016581;28;20234;-52
2022/12/05 12:28:26;;;;;;;478.90;183.53;;;;;;;;;;5022753;28;20621;-53
2022/12/05 12:31:10;;;;;;;561.37;213.97;;;;;;;;;;5021848;28;20282;-52
2022/12/05 12:34:03;;;;;;;450.90;166.63;;;;;;;;;;5019494;28;20212;-53
2022/12/05 12:36:38;;;;;;;450.17;178.27;;;;;;;;;;5021314;28;20286;-52
2022/12/05 12:39:27;;;;;;;588.67;219.10;;;;;;;;;;5020233;28;20583;-53
2022/12/05 12:44:34;;;;;;;543.83;215.47;;;;;;;;;;5111340;27;20565;-53
2022/12/05 12:47:07;;;;;;;486.07;193.97;;;;;;;;;;5062632;28;20680;-53
2022/12/05 12:49:49;;;;;;;504.10;204.00;;;;;;;;;;5060745;28;20203;-53
2022/12/05 12:52:17;;;;;;;418.13;173.77;;;;;;;;;;5058343;28;20227;-53
2022/12/05 12:54:58;;;;;;;399.17;162.70;;;;;;;;;;5062798;28;20254;-53
2022/12/05 12:57:33;;;;;;;515.83;211.63;;;;;;;;;;5063410;28;20760;-53
2022/12/05 12:59:59;;;;;;;507.03;209.13;;;;;;;;;;5061530;28;20206;-56
2022/12/05 13:02:28;;;;;;;466.43;194.80;;;;;;;;;;5062094;28;20253;-53
2022/12/05 13:05:04;;;;;;;518.20;211.27;;;;;;;;;;5052134;28;20233;-54
2022/12/05 13:07:49;;;;;;;452.40;181.00;;;;;;;;;;5052625;28;20191;-53
2022/12/05 13:10:34;;;;;;;510.37;200.17;;;;;;;;;;5062013;28;20203;-54
2022/12/05 13:13:02;;;;;;;530.10;208.13;;;;;;;;;;5062189;28;20206;-53
2022/12/05 13:15:36;;;;;;;372.67;154.87;;;;;;;;;;5062517;28;20221;-53
2022/12/05 13:18:03;;;;;;;483.97;198.20;;;;;;;;;;5061357;28;20211;-53
2022/12/05 13:20:32;;;;;;;535.70;210.80;;;;;;;;;;5061040;28;20211;-53
2022/12/05 13:22:58;;;;;;;525.33;209.53;;;;;;;;;;5060827;28;20556;-53
2022/12/05 13:25:28;;;;;;;518.80;203.90;;;;;;;;;;5058825;28;20213;-53
2022/12/05 13:27:59;;;;;;;399.40;163.47;;;;;;;;;;5055357;28;20235;-53
2022/12/05 13:30:27;;;;;;;447.35;180.98;;;;;;;;;;5050178;28;20411;-54
2022/12/05 13:33:01;;;;;;;411.23;169.60;;;;;;;;;;5051276;28;20733;-53
2022/12/05 13:43:54;;;;;;;502.73;197.07;;;;;;;;;;5061803;28;20213;-53
2022/12/05 13:46:25;;;;;;;425.33;171.07;;;;;;;;;;5060966;28;20203;-53
2022/12/05 13:48:59;;;;;;;353.67;145.47;;;;;;;;;;5060189;28;20740;-53
2022/12/05 13:51:31;;;;;;;402.33;164.13;;;;;;;;;;5062243;28;20257;-53
2022/12/05 13:53:59;;;;;;;524.53;208.67;;;;;;;;;;5058497;28;20703;-53
2022/12/05 13:56:44;;;;;;;488.43;201.93;;;;;;;;;;5046582;28;20544;-53
2022/12/05 13:59:11;;;;;;;463.27;180.37;;;;;;;;;;5047033;28;20183;-53
2022/12/05 14:01:43;;;;;;;415.07;161.47;;;;;;;;;;5030278;28;20179;-52
2022/12/05 14:04:22;;;;;;;475.80;198.33;;;;;;;;;;5047276;28;20211;-53
2022/12/05 14:06:51;;;;;;;498.43;199.07;;;;;;;;;;5048485;28;20238;-53
2022/12/05 14:09:17;;;;;;;487.40;191.30;;;;;;;;;;5047719;28;20207;-52
2022/12/05 14:12:02;;;;;;;409.27;167.73;;;;;;;;;;5047553;28;20231;-53
2022/12/05 14:14:47;;;;;;;487.83;196.77;;;;;;;;;;5048155;28;20214;-53
2022/12/05 14:17:13;;;;;;;426.83;166.10;;;;;;;;;;5048581;28;20219;-53
2022/12/05 14:20:03;;;;;;;543.47;206.70;;;;;;;;;;5048461;28;20176;-53
2022/12/05 14:22:42;;;;;;;439.37;173.20;;;;;;;;;;5034422;28;20721;-53
2022/12/05 14:25:32;;;;;;;527.27;202.53;;;;;;;;;;5046302;28;20231;-53
2022/12/05 14:28:19;;;;;;;525.47;204.93;;;;;;;;;;5047676;28;20211;-53
2022/12/05 14:30:51;;;;;;;411.97;167.03;;;;;;;;;;5011844;28;20219;-53
2022/12/05 14:33:17;;;;;;;544.90;213.70;;;;;;;;;;5030822;28;20235;-53